createdAt,value
2023-02-23T00:00:18.360Z,10.40
2023-02-23T00:01:18.705Z,11.40
2023-02-23T00:02:18.413Z,10.70
2023-02-23T00:03:18.394Z,11.90
2023-02-23T00:04:18.340Z,10.90
2023-02-23T00:05:18.346Z,10.80
2023-02-23T00:06:18.371Z,11.30
2023-02-23T00:07:18.358Z,11.50
2023-02-23T00:08:18.317Z,11.50
2023-02-23T00:09:18.333Z,11.00
2023-02-23T00:10:18.375Z,10.60
2023-02-23T00:11:18.713Z,11.00
2023-02-23T00:12:18.317Z,10.90
2023-02-23T00:13:18.298Z,12.00
2023-02-23T00:14:18.335Z,11.00
2023-02-23T00:15:18.271Z,11.40
2023-02-23T00:16:18.323Z,11.00
2023-02-23T00:17:18.283Z,10.50
2023-02-23T00:18:18.251Z,10.60
2023-02-23T00:19:18.297Z,11.30
2023-02-23T00:20:18.254Z,11.50
2023-02-23T00:21:18.570Z,11.40
2023-02-23T00:22:18.253Z,11.20
2023-02-23T00:23:18.241Z,11.40
2023-02-23T00:24:18.228Z,11.50
2023-02-23T00:25:18.249Z,11.70
2023-02-23T00:26:18.212Z,11.30
2023-02-23T00:27:18.212Z,10.90
2023-02-23T00:28:18.200Z,11.00
2023-02-23T00:29:18.211Z,11.00
2023-02-23T00:30:18.207Z,11.10
2023-02-23T00:31:18.536Z,11.40
2023-02-23T00:32:18.314Z,11.20
2023-02-23T00:33:18.172Z,11.90
2023-02-23T00:34:18.176Z,11.40
2023-02-23T00:35:18.206Z,11.90
2023-02-23T00:36:18.155Z,10.80
2023-02-23T00:37:18.161Z,11.00
2023-02-23T00:38:18.194Z,11.30
2023-02-23T00:39:18.159Z,10.80
2023-02-23T00:40:18.176Z,11.70
2023-02-23T00:41:18.479Z,12.00
2023-02-23T00:42:18.124Z,11.60
2023-02-23T00:43:18.148Z,11.60
2023-02-23T00:44:18.148Z,11.40
2023-02-23T00:45:18.126Z,11.00
2023-02-23T00:46:18.180Z,10.90
2023-02-23T00:47:18.132Z,12.10
2023-02-23T00:48:18.136Z,11.90
2023-02-23T00:49:18.102Z,11.70
2023-02-23T00:50:18.095Z,11.30
2023-02-23T00:51:18.350Z,12.30
2023-02-23T00:52:18.078Z,11.10
2023-02-23T00:53:18.069Z,11.60
2023-02-23T00:54:18.101Z,11.30
2023-02-23T00:55:18.048Z,11.20
2023-02-23T00:56:18.055Z,10.90
2023-02-23T00:57:18.053Z,11.10
2023-02-23T00:58:18.047Z,12.70
2023-02-23T00:59:18.072Z,12.20
2023-02-23T01:00:18.055Z,12.10
2023-02-23T01:01:18.502Z,11.70
2023-02-23T01:02:18.048Z,11.60
2023-02-23T01:03:18.036Z,12.40
2023-02-23T01:04:18.020Z,11.80
2023-02-23T01:05:17.992Z,11.60
2023-02-23T01:06:18.003Z,12.10
2023-02-23T01:07:18.014Z,12.50
2023-02-23T01:08:17.975Z,12.50
2023-02-23T01:09:17.973Z,13.20
2023-02-23T01:10:17.968Z,12.30
2023-02-23T01:11:18.289Z,12.80
2023-02-23T01:12:17.973Z,12.60
2023-02-23T01:13:17.969Z,12.80
2023-02-23T01:14:17.954Z,12.40
2023-02-23T01:15:17.932Z,11.60
2023-02-23T01:16:17.927Z,12.40
2023-02-23T01:17:17.926Z,12.90
2023-02-23T01:18:17.930Z,13.10
2023-02-23T01:19:17.940Z,12.40
2023-02-23T01:20:17.922Z,13.70
2023-02-23T01:21:18.276Z,13.70
2023-02-23T01:22:17.906Z,13.00
2023-02-23T01:23:19.754Z,12.90
2023-02-23T01:24:17.887Z,12.60
2023-02-23T01:25:17.884Z,12.40
2023-02-23T01:26:17.883Z,12.40
2023-02-23T01:27:17.892Z,13.30
2023-02-23T01:28:17.863Z,12.50
2023-02-23T01:29:17.907Z,13.30
2023-02-23T01:30:17.853Z,12.00
2023-02-23T01:31:18.414Z,12.60
2023-02-23T01:32:17.930Z,11.90
2023-02-23T01:33:17.834Z,13.30
2023-02-23T01:34:17.829Z,12.80
2023-02-23T01:35:17.816Z,12.50
2023-02-23T01:36:17.819Z,13.30
2023-02-23T01:37:17.833Z,13.10
2023-02-23T01:38:17.816Z,12.60
2023-02-23T01:39:17.856Z,12.80
2023-02-23T01:40:17.798Z,13.00
2023-02-23T01:41:18.161Z,13.50
2023-02-23T01:42:17.813Z,12.60
2023-02-23T01:43:17.787Z,13.20
2023-02-23T01:44:17.761Z,12.10
2023-02-23T01:45:17.799Z,13.30
2023-02-23T01:46:17.781Z,13.10
2023-02-23T01:47:17.758Z,12.90
2023-02-23T01:48:17.746Z,12.30
2023-02-23T01:49:17.769Z,12.90
2023-02-23T01:50:17.737Z,12.90
2023-02-23T01:51:18.104Z,12.90
2023-02-23T01:52:17.732Z,13.20
2023-02-23T01:53:17.733Z,14.20
2023-02-23T01:54:17.713Z,14.70
2023-02-23T01:55:17.703Z,15.00
2023-02-23T01:56:17.696Z,13.90
2023-02-23T01:57:17.689Z,15.80
2023-02-23T01:58:17.679Z,14.40
2023-02-23T01:59:17.709Z,14.70
2023-02-23T02:00:17.665Z,14.90
2023-02-23T02:01:18.207Z,14.40
2023-02-23T02:02:17.669Z,14.60
2023-02-23T02:03:17.653Z,15.30
2023-02-23T02:04:17.658Z,15.10
2023-02-23T02:05:17.708Z,13.90
2023-02-23T02:06:17.626Z,14.10
2023-02-23T02:07:17.647Z,13.80
2023-02-23T02:08:17.622Z,14.80
2023-02-23T02:09:17.731Z,13.70
2023-02-23T02:10:17.633Z,12.30
2023-02-23T02:11:17.929Z,13.20
2023-02-23T02:12:17.612Z,12.90
2023-02-23T02:13:17.599Z,13.50
2023-02-23T02:14:17.582Z,14.40
2023-02-23T02:15:17.867Z,14.60
2023-02-23T02:16:17.624Z,14.30
2023-02-23T02:17:17.598Z,14.50
2023-02-23T02:18:17.584Z,14.40
2023-02-23T02:19:17.560Z,14.50
2023-02-23T02:20:17.601Z,14.20
2023-02-23T02:21:18.013Z,14.90
2023-02-23T02:22:17.577Z,15.00
2023-02-23T02:23:17.548Z,15.00
2023-02-23T02:24:17.545Z,14.30
2023-02-23T02:25:17.546Z,14.50
2023-02-23T02:26:17.533Z,14.40
2023-02-23T02:27:17.503Z,14.10
2023-02-23T02:28:17.507Z,14.30
2023-02-23T02:29:17.523Z,13.00
2023-02-23T02:30:17.488Z,14.10
2023-02-23T02:31:17.972Z,13.60
2023-02-23T02:32:17.670Z,14.00
2023-02-23T02:33:17.521Z,14.50
2023-02-23T02:34:17.529Z,13.40
2023-02-23T02:35:17.517Z,12.90
2023-02-23T02:36:17.463Z,13.60
2023-02-23T02:37:17.473Z,12.90
2023-02-23T02:38:17.467Z,12.80
2023-02-23T02:39:17.452Z,13.60
2023-02-23T02:40:17.439Z,12.50
2023-02-23T02:41:17.819Z,12.90
2023-02-23T02:42:17.443Z,12.90
2023-02-23T02:43:17.437Z,13.10
2023-02-23T02:44:17.432Z,13.30
2023-02-23T02:45:17.436Z,12.90
2023-02-23T02:46:17.453Z,13.30
2023-02-23T02:47:17.414Z,12.30
2023-02-23T02:48:17.402Z,11.90
2023-02-23T02:49:17.397Z,12.80
2023-02-23T02:50:17.433Z,13.10
2023-02-23T02:51:17.808Z,11.90
2023-02-23T02:52:17.375Z,12.10
2023-02-23T02:53:17.360Z,12.30
2023-02-23T02:54:17.369Z,12.40
2023-02-23T02:55:17.356Z,12.30
2023-02-23T02:56:17.371Z,12.40
2023-02-23T02:57:17.342Z,12.60
2023-02-23T02:58:17.358Z,12.00
2023-02-23T02:59:17.332Z,12.20
2023-02-23T03:00:17.383Z,12.80
2023-02-23T03:01:17.599Z,13.00
2023-02-23T03:02:17.312Z,12.80
2023-02-23T03:03:17.311Z,12.20
2023-02-23T03:04:17.305Z,12.60
2023-02-23T03:05:17.434Z,12.00
2023-02-23T03:06:17.283Z,13.50
2023-02-23T03:07:17.297Z,12.40
2023-02-23T03:08:17.274Z,12.30
2023-02-23T03:09:17.277Z,11.70
2023-02-23T03:10:17.281Z,12.70
2023-02-23T03:11:17.667Z,12.30
2023-02-23T03:12:17.273Z,12.10
2023-02-23T03:13:17.236Z,12.10
2023-02-23T03:14:17.250Z,11.90
2023-02-23T03:15:17.228Z,12.10
2023-02-23T03:16:17.347Z,13.00
2023-02-23T03:17:17.220Z,13.10
2023-02-23T03:18:17.229Z,13.80
2023-02-23T03:19:17.216Z,12.70
2023-02-23T03:20:17.218Z,11.80
2023-02-23T03:21:17.646Z,12.20
2023-02-23T03:22:17.185Z,11.90
2023-02-23T03:23:17.196Z,12.40
2023-02-23T03:24:17.256Z,12.40
2023-02-23T03:25:17.174Z,11.90
2023-02-23T03:26:17.178Z,12.50
2023-02-23T03:27:17.164Z,12.40
2023-02-23T03:28:17.178Z,12.40
2023-02-23T03:29:17.168Z,12.60
2023-02-23T03:30:17.138Z,13.30
2023-02-23T03:31:17.498Z,13.20
2023-02-23T03:32:17.224Z,12.80
2023-02-23T03:33:17.157Z,12.00
2023-02-23T03:34:17.119Z,13.30
2023-02-23T03:35:17.112Z,12.20
2023-02-23T03:36:17.102Z,13.20
2023-02-23T03:37:17.113Z,12.70
2023-02-23T03:38:17.102Z,12.60
2023-02-23T03:39:17.110Z,13.30
2023-02-23T03:40:17.088Z,13.40
2023-02-23T03:41:17.457Z,13.40
2023-02-23T03:42:17.088Z,13.00
2023-02-23T03:43:17.062Z,13.90
2023-02-23T03:44:17.082Z,12.60
2023-02-23T03:45:17.052Z,12.70
2023-02-23T03:46:17.046Z,12.70
2023-02-23T03:47:17.071Z,11.60
2023-02-23T03:48:17.044Z,12.00
2023-02-23T03:49:17.060Z,11.10
2023-02-23T03:50:17.073Z,11.40
2023-02-23T03:51:17.387Z,12.30
2023-02-23T03:52:17.024Z,12.80
2023-02-23T03:53:17.036Z,12.30
2023-02-23T03:54:17.016Z,12.60
2023-02-23T03:55:17.008Z,12.90
2023-02-23T03:56:17.019Z,13.80
2023-02-23T03:57:17.013Z,13.10
2023-02-23T03:58:16.995Z,13.00
2023-02-23T03:59:16.989Z,12.90
2023-02-23T04:00:17.008Z,13.10
2023-02-23T04:01:17.293Z,13.50
2023-02-23T04:02:17.045Z,13.70
2023-02-23T04:03:16.975Z,14.70
2023-02-23T04:04:16.970Z,13.80
2023-02-23T04:05:16.948Z,14.40
2023-02-23T04:06:16.945Z,14.40
2023-02-23T04:07:16.956Z,14.90
2023-02-23T04:08:16.947Z,14.20
2023-02-23T04:09:16.960Z,15.40
2023-02-23T04:10:16.925Z,15.90
2023-02-23T04:11:17.294Z,15.10
2023-02-23T04:12:16.913Z,14.40
2023-02-23T04:13:16.930Z,14.90
2023-02-23T04:14:16.918Z,14.20
2023-02-23T04:15:16.919Z,13.70
2023-02-23T04:16:16.923Z,14.10
2023-02-23T04:17:16.895Z,14.10
2023-02-23T04:18:16.898Z,14.40
2023-02-23T04:19:16.885Z,13.90
2023-02-23T04:20:16.873Z,13.90
2023-02-23T04:21:17.217Z,13.90
2023-02-23T04:22:16.849Z,14.10
2023-02-23T04:23:16.852Z,13.70
2023-02-23T04:24:16.854Z,13.30
2023-02-23T04:25:17.527Z,14.20
2023-02-23T04:26:16.853Z,13.60
2023-02-23T04:27:16.829Z,13.80
2023-02-23T04:28:16.848Z,13.40
2023-02-23T04:29:16.821Z,13.20
2023-02-23T04:30:16.809Z,12.20
2023-02-23T04:31:17.327Z,13.00
2023-02-23T04:32:16.920Z,12.90
2023-02-23T04:33:16.797Z,13.40
2023-02-23T04:34:16.809Z,12.50
2023-02-23T04:35:16.790Z,12.80
2023-02-23T04:36:16.786Z,12.80
2023-02-23T04:37:16.787Z,12.50
2023-02-23T04:38:16.798Z,13.40
2023-02-23T04:39:16.761Z,13.50
2023-02-23T04:40:16.762Z,13.10
2023-02-23T04:41:16.902Z,13.70
2023-02-23T04:42:16.753Z,13.70
2023-02-23T04:43:16.864Z,14.60
2023-02-23T04:44:16.746Z,13.80
2023-02-23T04:45:16.734Z,14.00
2023-02-23T04:46:16.779Z,13.70
2023-02-23T04:47:16.732Z,13.70
2023-02-23T04:48:16.720Z,13.10
2023-02-23T04:49:16.753Z,13.20
2023-02-23T04:50:16.710Z,12.80
2023-02-23T04:51:17.081Z,13.20
2023-02-23T04:52:16.708Z,12.40
2023-02-23T04:53:16.688Z,12.60
2023-02-23T04:54:16.683Z,12.30
2023-02-23T04:55:16.674Z,13.40
2023-02-23T04:56:16.670Z,13.30
2023-02-23T04:57:16.680Z,12.60
2023-02-23T04:58:16.663Z,13.30
2023-02-23T04:59:16.660Z,13.00
2023-02-23T05:00:16.651Z,13.60
2023-02-23T05:01:17.019Z,13.60
2023-02-23T05:02:16.667Z,13.00
2023-02-23T05:03:16.626Z,14.10
2023-02-23T05:04:16.627Z,13.00
2023-02-23T05:05:16.610Z,13.20
2023-02-23T05:06:16.617Z,13.50
2023-02-23T05:07:16.617Z,14.30
2023-02-23T05:08:16.614Z,14.40
2023-02-23T05:09:16.589Z,13.30
2023-02-23T05:10:16.600Z,14.00
2023-02-23T05:11:16.716Z,14.70
2023-02-23T05:12:16.566Z,14.00
2023-02-23T05:13:16.572Z,14.60
2023-02-23T05:14:16.587Z,14.40
2023-02-23T05:15:16.590Z,13.60
2023-02-23T05:16:16.561Z,13.70
2023-02-23T05:17:16.562Z,13.20
2023-02-23T05:18:16.584Z,12.50
2023-02-23T05:19:16.851Z,12.60
2023-02-23T05:20:16.560Z,11.90
2023-02-23T05:21:16.727Z,13.00
2023-02-23T05:22:16.509Z,13.00
2023-02-23T05:23:16.509Z,13.30
2023-02-23T05:24:16.516Z,12.60
2023-02-23T05:25:16.513Z,13.10
2023-02-23T05:26:16.488Z,12.10
2023-02-23T05:27:16.478Z,12.50
2023-02-23T05:28:16.512Z,13.80
2023-02-23T05:29:16.466Z,14.70
2023-02-23T05:30:16.465Z,15.10
2023-02-23T05:31:16.681Z,13.10
2023-02-23T05:32:16.606Z,12.80
2023-02-23T05:33:18.268Z,12.80
2023-02-23T05:34:16.446Z,12.10
2023-02-23T05:35:16.433Z,12.80
2023-02-23T05:36:23.453Z,11.80
2023-02-23T05:37:16.445Z,11.80
2023-02-23T05:38:16.471Z,11.60
2023-02-23T05:39:16.432Z,11.40
2023-02-23T05:40:16.428Z,12.10
2023-02-23T05:41:16.449Z,11.50
2023-02-23T05:42:16.398Z,12.50
2023-02-23T05:43:16.426Z,12.10
2023-02-23T05:44:16.390Z,12.20
2023-02-23T05:45:16.387Z,11.10
2023-02-23T05:46:16.456Z,12.00
2023-02-23T05:47:16.401Z,11.40
2023-02-23T05:48:16.369Z,12.00
2023-02-23T05:49:16.345Z,13.10
2023-02-23T05:50:16.415Z,12.10
2023-02-23T05:51:16.434Z,12.60
2023-02-23T05:52:16.349Z,11.40
2023-02-23T05:53:16.353Z,10.90
2023-02-23T05:54:16.336Z,11.50
2023-02-23T05:55:16.333Z,11.70
2023-02-23T05:56:16.329Z,11.80
2023-02-23T05:57:16.335Z,11.50
2023-02-23T05:58:16.309Z,11.40
2023-02-23T05:59:16.307Z,11.00
2023-02-23T06:00:16.312Z,12.10
2023-02-23T06:01:16.476Z,12.00
2023-02-23T06:02:16.345Z,11.90
2023-02-23T06:03:16.280Z,11.90
2023-02-23T06:04:16.290Z,13.10
2023-02-23T06:05:16.265Z,11.50
2023-02-23T06:06:16.290Z,11.70
2023-02-23T06:07:16.277Z,11.30
2023-02-23T06:08:16.258Z,11.60
2023-02-23T06:09:16.270Z,12.30
2023-02-23T06:10:16.237Z,11.80
2023-02-23T06:11:16.253Z,12.50
2023-02-23T06:12:16.234Z,12.40
2023-02-23T06:13:16.213Z,13.00
2023-02-23T06:14:16.217Z,12.30
2023-02-23T06:15:16.220Z,12.70
2023-02-23T06:16:16.302Z,12.80
2023-02-23T06:17:16.209Z,13.00
2023-02-23T06:18:16.206Z,12.40
2023-02-23T06:19:16.191Z,13.40
2023-02-23T06:20:16.191Z,14.70
2023-02-23T06:21:16.291Z,16.70
2023-02-23T06:22:16.159Z,17.70
2023-02-23T06:23:16.159Z,17.70
2023-02-23T06:24:16.181Z,18.00
2023-02-23T06:25:16.169Z,17.30
2023-02-23T06:26:16.163Z,15.70
2023-02-23T06:27:16.135Z,15.20
2023-02-23T06:28:16.155Z,14.70
2023-02-23T06:29:16.130Z,15.10
2023-02-23T06:30:16.148Z,14.20
2023-02-23T06:31:16.244Z,12.90
2023-02-23T06:32:16.286Z,8.50
2023-02-23T06:33:16.089Z,8.90
2023-02-23T06:34:16.083Z,8.10
2023-02-23T06:35:16.094Z,9.30
2023-02-23T06:36:16.076Z,9.00
2023-02-23T06:37:16.081Z,10.30
2023-02-23T06:38:16.077Z,11.00
2023-02-23T06:39:16.075Z,9.50
2023-02-23T06:40:16.058Z,10.50
2023-02-23T06:41:16.059Z,9.00
2023-02-23T06:42:16.031Z,9.00
2023-02-23T06:43:16.026Z,11.20
2023-02-23T06:44:16.056Z,12.80
2023-02-23T06:45:16.006Z,14.00
2023-02-23T06:46:16.060Z,15.10
2023-02-23T06:47:15.994Z,14.50
2023-02-23T06:48:16.003Z,15.20
2023-02-23T06:49:16.681Z,15.00
2023-02-23T06:50:15.994Z,14.80
2023-02-23T06:51:15.981Z,14.40
2023-02-23T06:52:15.991Z,13.60
2023-02-23T06:53:15.962Z,14.10
2023-02-23T06:54:15.953Z,15.60
2023-02-23T06:55:15.970Z,17.10
2023-02-23T06:56:15.952Z,16.90
2023-02-23T06:57:15.925Z,15.20
2023-02-23T06:58:15.947Z,13.30
2023-02-23T06:59:15.933Z,12.80
2023-02-23T07:00:15.931Z,12.70
2023-02-23T07:01:15.895Z,13.50
2023-02-23T07:02:15.943Z,12.80
2023-02-23T07:03:15.931Z,12.60
2023-02-23T07:04:16.942Z,13.60
2023-02-23T07:05:15.886Z,12.80
2023-02-23T07:06:15.888Z,11.70
2023-02-23T07:07:15.863Z,12.10
2023-02-23T07:08:15.882Z,12.50
2023-02-23T07:09:15.869Z,14.00
2023-02-23T07:10:15.861Z,13.90
2023-02-23T07:11:15.901Z,13.50
2023-02-23T07:12:15.836Z,13.50
2023-02-23T07:13:15.829Z,13.60
2023-02-23T07:14:26.184Z,14.70
2023-02-23T07:15:16.831Z,15.20
2023-02-23T07:16:15.820Z,13.20
2023-02-23T07:17:15.808Z,12.80
2023-02-23T07:18:15.826Z,11.30
2023-02-23T07:19:15.796Z,11.10
2023-02-23T07:20:15.816Z,12.20
2023-02-23T07:21:15.801Z,12.60
2023-02-23T07:22:15.819Z,12.60
2023-02-23T07:23:15.767Z,12.30
2023-02-23T07:24:15.777Z,15.00
2023-02-23T07:25:15.760Z,16.50
2023-02-23T07:26:15.795Z,15.50
2023-02-23T07:27:15.753Z,15.50
2023-02-23T07:28:15.767Z,16.30
2023-02-23T07:29:15.750Z,15.60
2023-02-23T07:30:15.744Z,16.50
2023-02-23T07:31:15.797Z,19.60
2023-02-23T07:32:15.864Z,20.50
2023-02-23T07:33:15.699Z,20.10
2023-02-23T07:34:15.704Z,21.90
2023-02-23T07:35:15.696Z,21.70
2023-02-23T07:36:15.691Z,19.70
2023-02-23T07:37:15.693Z,19.40
2023-02-23T07:38:15.715Z,17.90
2023-02-23T07:39:15.672Z,16.50
2023-02-23T07:40:15.684Z,16.20
2023-02-23T07:41:15.668Z,16.40
2023-02-23T07:42:15.687Z,16.60
2023-02-23T07:43:15.656Z,16.70
2023-02-23T07:44:15.648Z,17.10
2023-02-23T07:45:15.690Z,16.70
2023-02-23T07:46:15.699Z,17.30
2023-02-23T07:47:15.635Z,17.20
2023-02-23T07:48:15.642Z,17.10
2023-02-23T07:49:15.642Z,17.80
2023-02-23T07:50:15.633Z,18.20
2023-02-23T07:51:15.632Z,18.60
2023-02-23T07:52:15.614Z,18.60
2023-02-23T07:53:15.628Z,18.40
2023-02-23T07:54:15.609Z,18.40
2023-02-23T07:55:15.589Z,18.20
2023-02-23T07:56:15.611Z,19.50
2023-02-23T07:57:15.585Z,18.20
2023-02-23T07:58:15.593Z,18.10
2023-02-23T07:59:15.569Z,18.50
2023-02-23T08:00:15.583Z,19.30
2023-02-23T08:01:15.617Z,18.90
2023-02-23T08:02:15.566Z,19.80
2023-02-23T08:03:15.551Z,18.10
2023-02-23T08:04:15.581Z,18.70
2023-02-23T08:05:15.553Z,18.40
2023-02-23T08:06:15.578Z,18.90
2023-02-23T08:07:15.544Z,19.00
2023-02-23T08:08:15.540Z,18.50
2023-02-23T08:09:15.541Z,24.40
2023-02-23T08:10:15.509Z,27.40
2023-02-23T08:11:15.511Z,25.10
2023-02-23T08:12:15.495Z,23.10
2023-02-23T08:13:15.516Z,21.70
2023-02-23T08:14:15.538Z,19.40
2023-02-23T08:15:15.469Z,18.70
2023-02-23T08:16:15.493Z,17.90
2023-02-23T08:17:15.482Z,16.90
2023-02-23T08:18:15.477Z,17.80
2023-02-23T08:19:15.513Z,17.50
2023-02-23T08:20:15.498Z,17.60
2023-02-23T08:21:15.459Z,17.60
2023-02-23T08:22:15.448Z,18.00
2023-02-23T08:23:15.448Z,18.10
2023-02-23T08:24:15.438Z,18.40
2023-02-23T08:25:15.418Z,21.00
2023-02-23T08:26:15.449Z,19.10
2023-02-23T08:27:15.404Z,19.30
2023-02-23T08:28:15.420Z,19.10
2023-02-23T08:29:15.400Z,20.00
2023-02-23T08:30:15.428Z,19.30
2023-02-23T08:31:15.516Z,18.60
2023-02-23T08:32:15.465Z,18.70
2023-02-23T08:33:15.371Z,18.90
2023-02-23T08:34:15.410Z,18.50
2023-02-23T08:35:15.364Z,18.20
2023-02-23T08:36:15.409Z,19.70
2023-02-23T08:37:15.389Z,20.10
2023-02-23T08:38:15.370Z,19.50
2023-02-23T08:39:15.376Z,19.10
2023-02-23T08:40:15.394Z,19.20
2023-02-23T08:41:15.338Z,19.30
2023-02-23T08:42:15.340Z,20.10
2023-02-23T08:43:16.317Z,19.50
2023-02-23T08:44:15.325Z,19.90
2023-02-23T08:45:15.325Z,18.40
2023-02-23T08:46:15.400Z,19.10
2023-02-23T08:47:15.313Z,19.30
2023-02-23T08:48:15.327Z,19.40
2023-02-23T08:49:15.296Z,19.30
2023-02-23T08:50:15.267Z,19.20
2023-02-23T08:51:15.279Z,19.10
2023-02-23T08:52:15.287Z,18.90
2023-02-23T08:53:15.264Z,18.70
2023-02-23T08:54:15.285Z,20.60
2023-02-23T08:55:15.245Z,19.70
2023-02-23T08:56:15.252Z,19.60
2023-02-23T08:57:15.256Z,19.80
2023-02-23T08:58:15.272Z,20.00
2023-02-23T08:59:15.262Z,20.00
2023-02-23T09:00:15.270Z,19.10
2023-02-23T09:01:15.237Z,20.50
2023-02-23T09:02:15.263Z,20.00
2023-02-23T09:03:15.207Z,19.30
2023-02-23T09:04:15.212Z,20.20
2023-02-23T09:05:15.286Z,19.90
2023-02-23T09:06:15.198Z,19.80
2023-02-23T09:07:15.180Z,21.20
2023-02-23T09:08:15.167Z,21.00
2023-02-23T09:09:15.159Z,21.20
2023-02-23T09:10:15.204Z,21.90
2023-02-23T09:11:15.161Z,21.90
2023-02-23T09:12:15.165Z,21.80
2023-02-23T09:13:15.196Z,21.50
2023-02-23T09:14:15.129Z,21.60
2023-02-23T09:15:15.125Z,21.40
2023-02-23T09:16:15.212Z,22.00
2023-02-23T09:17:17.161Z,22.50
2023-02-23T09:18:15.129Z,21.60
2023-02-23T09:19:15.109Z,22.20
2023-02-23T09:20:15.165Z,22.20
2023-02-23T09:21:15.080Z,22.90
2023-02-23T09:22:15.077Z,22.50
2023-02-23T09:23:15.084Z,23.60
2023-02-23T09:24:15.075Z,23.90
2023-02-23T09:25:15.060Z,23.80
2023-02-23T09:26:15.084Z,24.60
2023-02-23T09:27:15.044Z,25.00
2023-02-23T09:28:15.067Z,25.00
2023-02-23T09:29:15.079Z,24.40
2023-02-23T09:30:15.028Z,24.40
2023-02-23T09:31:15.124Z,24.40
2023-02-23T09:32:15.079Z,25.50
2023-02-23T09:33:15.041Z,25.90
2023-02-23T09:34:15.017Z,25.50
2023-02-23T09:35:15.013Z,25.50
2023-02-23T09:36:15.026Z,27.40
2023-02-23T09:37:15.032Z,26.60
2023-02-23T09:38:14.996Z,27.30
2023-02-23T09:39:14.990Z,26.70
2023-02-23T09:40:14.973Z,26.60
2023-02-23T09:41:14.971Z,26.70
2023-02-23T09:42:14.956Z,26.80
2023-02-23T09:43:14.982Z,25.00
2023-02-23T09:44:14.947Z,25.10
2023-02-23T09:45:14.968Z,24.30
2023-02-23T09:46:14.980Z,23.70
2023-02-23T09:47:14.963Z,23.20
2023-02-23T09:48:14.986Z,22.30
2023-02-23T09:49:14.922Z,22.80
2023-02-23T09:50:14.928Z,23.40
2023-02-23T09:51:14.919Z,24.00
2023-02-23T09:52:15.141Z,25.60
2023-02-23T09:53:14.913Z,28.10
2023-02-23T09:54:14.915Z,30.00
2023-02-23T09:55:14.898Z,29.60
2023-02-23T09:56:14.899Z,28.80
2023-02-23T09:57:14.885Z,28.70
2023-02-23T09:58:14.880Z,29.10
2023-02-23T09:59:14.863Z,29.40
2023-02-23T10:00:14.912Z,29.70
2023-02-23T10:01:14.883Z,29.40
2023-02-23T10:02:14.839Z,31.40
2023-02-23T10:03:14.838Z,31.80
2023-02-23T10:04:14.844Z,31.70
2023-02-23T10:05:14.869Z,30.40
2023-02-23T10:06:14.857Z,30.10
2023-02-23T10:07:14.869Z,29.20
2023-02-23T10:08:14.818Z,31.10
2023-02-23T10:09:14.818Z,30.10
2023-02-23T10:10:14.812Z,31.80
2023-02-23T10:11:14.833Z,31.70
2023-02-23T10:12:14.779Z,31.90
2023-02-23T10:13:14.772Z,30.90
2023-02-23T10:14:14.786Z,32.00
2023-02-23T10:15:14.780Z,32.20
2023-02-23T10:16:14.779Z,32.70
2023-02-23T10:17:14.786Z,32.80
2023-02-23T10:18:14.723Z,31.70
2023-02-23T10:19:14.760Z,32.00
2023-02-23T10:20:14.742Z,32.10
2023-02-23T10:21:14.725Z,32.90
2023-02-23T10:22:14.726Z,33.60
2023-02-23T10:23:14.700Z,33.80
2023-02-23T10:24:14.750Z,40.20
2023-02-23T10:25:14.695Z,41.80
2023-02-23T10:26:14.701Z,39.20
2023-02-23T10:27:14.683Z,34.20
2023-02-23T10:28:14.695Z,34.50
2023-02-23T10:29:14.708Z,37.50
2023-02-23T10:30:14.717Z,38.30
2023-02-23T10:31:14.693Z,34.30
2023-02-23T10:32:14.775Z,32.20
2023-02-23T10:33:14.677Z,29.70
2023-02-23T10:34:14.704Z,31.00
2023-02-23T10:35:14.632Z,31.00
2023-02-23T10:36:14.635Z,31.80
2023-02-23T10:37:14.635Z,32.40
2023-02-23T10:38:14.605Z,32.90
2023-02-23T10:39:14.613Z,34.60
2023-02-23T10:40:14.645Z,36.30
2023-02-23T10:41:15.126Z,35.00
2023-02-23T10:42:14.577Z,36.70
2023-02-23T10:43:14.582Z,34.20
2023-02-23T10:44:17.141Z,34.60
2023-02-23T10:45:14.580Z,35.30
2023-02-23T10:46:14.570Z,34.90
2023-02-23T10:47:14.566Z,33.40
2023-02-23T10:48:14.614Z,32.40
2023-02-23T10:49:14.546Z,32.20
2023-02-23T10:50:14.562Z,34.10
2023-02-23T10:51:14.547Z,33.00
2023-02-23T10:52:14.532Z,32.40
2023-02-23T10:53:14.517Z,33.10
2023-02-23T10:54:14.533Z,33.10
2023-02-23T10:55:14.507Z,31.10
2023-02-23T10:56:14.515Z,33.80
2023-02-23T10:57:14.496Z,32.50
2023-02-23T10:58:14.507Z,33.70
2023-02-23T10:59:14.763Z,33.00
2023-02-23T11:00:14.662Z,31.90
2023-02-23T11:01:14.547Z,31.80
2023-02-23T11:02:14.523Z,31.50
2023-02-23T11:03:14.541Z,32.00
2023-02-23T11:04:14.503Z,32.50
2023-02-23T11:05:14.447Z,32.40
2023-02-23T11:06:14.464Z,32.60
2023-02-23T11:07:14.451Z,32.50
2023-02-23T11:08:14.907Z,32.50
2023-02-23T11:09:14.529Z,33.40
2023-02-23T11:10:14.757Z,34.40
2023-02-23T11:11:14.665Z,33.60
2023-02-23T11:12:14.400Z,31.70
2023-02-23T11:13:14.410Z,33.60
2023-02-23T11:14:14.369Z,33.70
2023-02-23T11:15:14.380Z,33.80
2023-02-23T11:16:14.421Z,31.90
2023-02-23T11:17:14.358Z,32.30
2023-02-23T11:18:14.361Z,33.40
2023-02-23T11:19:14.342Z,32.80
2023-02-23T11:20:14.360Z,34.00
2023-02-23T11:21:14.350Z,32.70
2023-02-23T11:22:14.331Z,31.90
2023-02-23T11:23:14.968Z,32.80
2023-02-23T11:24:14.300Z,32.60
2023-02-23T11:25:14.302Z,32.60
2023-02-23T11:26:14.336Z,32.40
2023-02-23T11:27:14.295Z,33.50
2023-02-23T11:28:14.267Z,33.00
2023-02-23T11:29:14.300Z,33.60
2023-02-23T11:30:14.263Z,33.40
2023-02-23T11:31:14.366Z,33.40
2023-02-23T11:32:14.449Z,32.90
2023-02-23T11:33:14.243Z,32.90
2023-02-23T11:34:14.223Z,33.60
2023-02-23T11:35:14.227Z,33.50
2023-02-23T11:36:14.217Z,33.80
2023-02-23T11:37:21.249Z,33.90
2023-02-23T11:38:14.275Z,33.70
2023-02-23T11:39:14.212Z,33.80
2023-02-23T11:40:14.178Z,35.00
2023-02-23T11:41:14.192Z,34.70
2023-02-23T11:42:14.203Z,35.20
2023-02-23T11:43:14.179Z,34.30
2023-02-23T11:44:14.166Z,34.90
2023-02-23T11:45:14.173Z,35.40
2023-02-23T11:46:14.287Z,35.10
2023-02-23T11:47:14.194Z,34.20
2023-02-23T11:48:14.185Z,34.50
2023-02-23T11:49:14.122Z,33.80
2023-02-23T11:50:14.154Z,33.50
2023-02-23T11:51:14.147Z,36.60
2023-02-23T11:52:14.094Z,34.40
2023-02-23T11:53:14.093Z,34.90
2023-02-23T11:54:14.129Z,35.40
2023-02-23T11:55:14.070Z,34.90
2023-02-23T11:56:14.074Z,35.60
2023-02-23T11:57:14.104Z,34.30
2023-02-23T11:58:14.056Z,35.40
2023-02-23T11:59:14.065Z,33.60
2023-02-23T12:00:14.040Z,33.70
2023-02-23T12:01:14.045Z,35.00
2023-02-23T12:02:14.052Z,33.90
2023-02-23T12:03:14.050Z,33.30
2023-02-23T12:04:14.034Z,33.00
2023-02-23T12:05:14.085Z,34.20
2023-02-23T12:06:14.042Z,34.50
2023-02-23T12:07:13.999Z,32.90
2023-02-23T12:08:14.035Z,34.20
2023-02-23T12:09:14.000Z,34.20
2023-02-23T12:10:13.974Z,33.50
2023-02-23T12:11:13.975Z,34.30
2023-02-23T12:12:13.976Z,34.00
2023-02-23T12:13:13.985Z,33.20
2023-02-23T12:14:13.985Z,33.90
2023-02-23T12:15:13.943Z,33.40
2023-02-23T12:16:13.995Z,34.10
2023-02-23T12:17:13.943Z,33.70
2023-02-23T12:18:13.942Z,32.60
2023-02-23T12:19:13.920Z,33.50
2023-02-23T12:20:13.949Z,31.80
2023-02-23T12:21:13.892Z,30.90
2023-02-23T12:22:13.896Z,29.00
2023-02-23T12:23:13.916Z,30.80
2023-02-23T12:24:13.918Z,28.50
2023-02-23T12:25:13.898Z,28.60
2023-02-23T12:26:13.995Z,28.50
2023-02-23T12:27:13.881Z,29.00
2023-02-23T12:28:19.123Z,27.30
2023-02-23T12:29:14.877Z,28.70
2023-02-23T12:30:13.863Z,26.50
2023-02-23T12:31:13.974Z,25.80
2023-02-23T12:32:13.910Z,26.20
2023-02-23T12:33:13.823Z,27.70
2023-02-23T12:34:13.848Z,27.90
2023-02-23T12:35:13.808Z,28.80
2023-02-23T12:36:13.828Z,30.10
2023-02-23T12:37:13.808Z,30.00
2023-02-23T12:38:13.797Z,29.90
2023-02-23T12:39:13.783Z,30.20
2023-02-23T12:40:13.868Z,28.70
2023-02-23T12:41:13.763Z,28.50
2023-02-23T12:42:13.781Z,28.90
2023-02-23T12:43:13.739Z,28.60
2023-02-23T12:44:13.763Z,27.90
2023-02-23T12:45:13.737Z,27.50
2023-02-23T12:46:13.772Z,28.00
2023-02-23T12:47:13.746Z,28.70
2023-02-23T12:48:13.733Z,28.80
2023-02-23T12:49:13.700Z,28.10
2023-02-23T12:50:13.798Z,28.80
2023-02-23T12:51:13.705Z,28.40
2023-02-23T12:52:13.706Z,30.00